createdAt,value
2023-04-19T00:00:48.614Z,0.63
2023-04-19T00:01:48.647Z,0.64
2023-04-19T00:02:48.667Z,0.64
2023-04-19T00:03:48.887Z,0.63
2023-04-19T00:04:48.618Z,0.61
2023-04-19T00:05:48.485Z,0.64
2023-04-19T00:06:48.456Z,0.62
2023-04-19T00:07:48.432Z,0.62
2023-04-19T00:08:48.399Z,0.64
2023-04-19T00:09:48.385Z,0.64
2023-04-19T00:10:48.346Z,0.63
2023-04-19T00:11:48.314Z,0.63
2023-04-19T00:12:48.288Z,0.62
2023-04-19T00:13:48.274Z,0.60
2023-04-19T00:14:48.237Z,0.62
2023-04-19T00:15:48.218Z,0.61
2023-04-19T00:16:48.250Z,0.61
2023-04-19T00:17:48.218Z,0.61
2023-04-19T00:18:48.139Z,0.61
2023-04-19T00:19:48.111Z,0.63
2023-04-19T00:20:48.086Z,0.63
2023-04-19T00:21:48.114Z,0.61
2023-04-19T00:22:48.037Z,0.61
2023-04-19T00:23:48.017Z,0.62
2023-04-19T00:24:47.989Z,0.63
2023-04-19T00:25:47.963Z,0.61
2023-04-19T00:26:47.941Z,0.62
2023-04-19T00:27:47.913Z,0.63
2023-04-19T00:28:47.885Z,0.63
2023-04-19T00:29:47.871Z,0.62
2023-04-19T00:30:47.882Z,0.61
2023-04-19T00:31:47.819Z,0.63
2023-04-19T00:32:47.838Z,0.61
2023-04-19T00:33:47.774Z,0.58
2023-04-19T00:34:47.745Z,0.59
2023-04-19T00:35:47.719Z,0.59
2023-04-19T00:36:47.743Z,0.61
2023-04-19T00:37:47.700Z,0.56
2023-04-19T00:38:47.650Z,0.61
2023-04-19T00:39:47.639Z,0.61
2023-04-19T00:40:47.602Z,0.62
2023-04-19T00:41:47.593Z,0.60
2023-04-19T00:42:47.566Z,0.61
2023-04-19T00:43:47.554Z,0.59
2023-04-19T00:44:47.544Z,0.61
2023-04-19T00:45:47.543Z,0.57
2023-04-19T00:46:48.213Z,0.59
2023-04-19T00:47:47.497Z,0.58
2023-04-19T00:48:47.448Z,0.59
2023-04-19T00:49:47.441Z,0.61
2023-04-19T00:50:47.410Z,0.61
2023-04-19T00:51:47.386Z,0.57
2023-04-19T00:52:47.360Z,0.62
2023-04-19T00:53:47.349Z,0.59
2023-04-19T00:54:47.327Z,0.57
2023-04-19T00:55:47.306Z,0.58
2023-04-19T00:56:47.281Z,0.57
2023-04-19T00:57:47.266Z,0.58
2023-04-19T00:58:47.251Z,0.61
2023-04-19T00:59:47.243Z,0.59
2023-04-19T01:00:47.215Z,0.60
2023-04-19T01:01:47.257Z,0.61
2023-04-19T01:02:47.261Z,0.60
2023-04-19T01:03:47.294Z,0.60
2023-04-19T01:04:47.142Z,0.60
2023-04-19T01:05:47.105Z,0.60
2023-04-19T01:06:47.090Z,0.60
2023-04-19T01:07:47.074Z,0.59
2023-04-19T01:08:47.058Z,0.59
2023-04-19T01:09:47.038Z,0.59
2023-04-19T01:10:47.003Z,0.58
2023-04-19T01:11:46.973Z,0.59
2023-04-19T01:12:46.959Z,0.58
2023-04-19T01:13:46.916Z,0.56
2023-04-19T01:14:46.909Z,0.60
2023-04-19T01:15:46.925Z,0.59
2023-04-19T01:16:46.845Z,0.59
2023-04-19T01:17:46.843Z,0.58
2023-04-19T01:18:46.809Z,0.57
2023-04-19T01:19:46.790Z,0.60
2023-04-19T01:20:46.763Z,0.59
2023-04-19T01:21:46.744Z,0.57
2023-04-19T01:22:46.707Z,0.57
2023-04-19T01:23:46.692Z,0.60
2023-04-19T01:24:46.691Z,0.56
2023-04-19T01:25:46.651Z,0.59
2023-04-19T01:26:46.636Z,0.53
2023-04-19T01:27:46.605Z,0.57
2023-04-19T01:28:46.592Z,0.57
2023-04-19T01:29:46.582Z,0.57
2023-04-19T01:30:46.543Z,0.56
2023-04-19T01:31:46.593Z,0.55
2023-04-19T01:32:46.536Z,0.58
2023-04-19T01:33:46.466Z,0.56
2023-04-19T01:34:46.445Z,0.56
2023-04-19T01:35:46.428Z,0.56
2023-04-19T01:36:46.396Z,0.58
2023-04-19T01:37:46.378Z,0.57
2023-04-19T01:38:46.350Z,0.56
2023-04-19T01:39:46.328Z,0.57
2023-04-19T01:40:46.296Z,0.53
2023-04-19T01:41:46.293Z,0.56
2023-04-19T01:42:46.346Z,0.57
2023-04-19T01:43:46.219Z,0.54
2023-04-19T01:44:46.195Z,0.56
2023-04-19T01:45:46.185Z,0.57
2023-04-19T01:46:46.158Z,0.57
2023-04-19T01:47:46.193Z,0.54
2023-04-19T01:48:46.085Z,0.55
2023-04-19T01:49:46.065Z,0.54
2023-04-19T01:50:46.037Z,0.56
2023-04-19T01:51:45.994Z,0.56
2023-04-19T01:52:45.989Z,0.55
2023-04-19T01:53:45.950Z,0.56
2023-04-19T01:54:45.929Z,0.56
2023-04-19T01:55:45.913Z,0.55
2023-04-19T01:56:45.874Z,0.54
2023-04-19T01:57:45.888Z,0.55
2023-04-19T01:58:45.823Z,0.55
2023-04-19T01:59:45.815Z,0.56
2023-04-19T02:00:45.862Z,0.53
2023-04-19T02:01:45.800Z,0.54
2023-04-19T02:02:45.813Z,0.53
2023-04-19T02:03:45.793Z,0.53
2023-04-19T02:04:45.675Z,0.54
2023-04-19T02:05:45.656Z,0.55
2023-04-19T02:06:45.614Z,0.57
2023-04-19T02:07:45.604Z,0.52
2023-04-19T02:08:45.573Z,0.55
2023-04-19T02:09:45.548Z,0.54
2023-04-19T02:10:45.499Z,0.55
2023-04-19T02:11:45.479Z,0.54
2023-04-19T02:12:45.456Z,0.53
2023-04-19T02:13:45.441Z,0.55
2023-04-19T02:14:45.397Z,0.56
2023-04-19T02:15:45.370Z,0.53
2023-04-19T02:16:45.369Z,0.54
2023-04-19T02:17:45.346Z,0.52
2023-04-19T02:18:45.294Z,0.54
2023-04-19T02:19:45.263Z,0.55
2023-04-19T02:20:45.239Z,0.55
2023-04-19T02:21:45.214Z,0.54
2023-04-19T02:22:45.180Z,0.52
2023-04-19T02:23:45.178Z,0.53
2023-04-19T02:24:45.129Z,0.52
2023-04-19T02:25:45.108Z,0.53
2023-04-19T02:26:45.094Z,0.52
2023-04-19T02:27:45.056Z,0.53
2023-04-19T02:28:45.011Z,0.53
2023-04-19T02:29:44.996Z,0.52
2023-04-19T02:30:45.031Z,0.54
2023-04-19T02:31:44.961Z,0.52
2023-04-19T02:32:44.925Z,0.52
2023-04-19T02:33:44.875Z,0.52
2023-04-19T02:34:44.848Z,0.53
2023-04-19T02:35:44.814Z,0.51
2023-04-19T02:36:44.778Z,0.51
2023-04-19T02:37:44.751Z,0.53
2023-04-19T02:38:44.712Z,0.53
2023-04-19T02:39:44.678Z,0.53
2023-04-19T02:40:44.651Z,0.52
2023-04-19T02:41:44.614Z,0.53
2023-04-19T02:42:44.606Z,0.54
2023-04-19T02:43:44.565Z,0.51
2023-04-19T02:44:44.524Z,0.54
2023-04-19T02:45:44.590Z,0.53
2023-04-19T02:46:44.464Z,0.54
2023-04-19T02:47:44.448Z,0.51
2023-04-19T02:48:44.391Z,0.53
2023-04-19T02:49:44.374Z,0.53
2023-04-19T02:50:44.337Z,0.54
2023-04-19T02:51:44.309Z,0.53
2023-04-19T02:52:44.278Z,0.53
2023-04-19T02:53:44.264Z,0.53
2023-04-19T02:54:44.217Z,0.53
2023-04-19T02:55:44.164Z,0.53
2023-04-19T02:56:44.131Z,0.54
2023-04-19T02:57:44.086Z,0.54
2023-04-19T02:58:44.064Z,0.52
2023-04-19T02:59:44.033Z,0.53
2023-04-19T03:00:44.004Z,0.52
2023-04-19T03:01:44.065Z,0.52
2023-04-19T03:02:44.042Z,0.51
2023-04-19T03:03:44.022Z,0.53
2023-04-19T03:04:43.885Z,0.53
2023-04-19T03:05:43.851Z,0.52
2023-04-19T03:06:43.823Z,0.53
2023-04-19T03:07:44.718Z,0.55
2023-04-19T03:08:43.761Z,0.51
2023-04-19T03:09:43.733Z,0.54
2023-04-19T03:10:43.699Z,0.53
2023-04-19T03:11:43.664Z,0.53
2023-04-19T03:12:43.786Z,0.53
2023-04-19T03:13:43.593Z,0.54
2023-04-19T03:14:43.590Z,0.52
2023-04-19T03:15:43.605Z,0.53
2023-04-19T03:16:43.508Z,0.52
2023-04-19T03:17:43.520Z,0.55
2023-04-19T03:18:43.438Z,0.54
2023-04-19T03:19:43.408Z,0.51
2023-04-19T03:20:43.375Z,0.53
2023-04-19T03:21:43.331Z,0.54
2023-04-19T03:22:43.297Z,0.53
2023-04-19T03:23:43.261Z,0.53
2023-04-19T03:24:43.240Z,0.53
2023-04-19T03:25:43.184Z,0.54
2023-04-19T03:26:43.161Z,0.55
2023-04-19T03:27:43.121Z,0.54
2023-04-19T03:28:43.126Z,0.52
2023-04-19T03:29:43.053Z,0.53
2023-04-19T03:30:43.027Z,0.54
2023-04-19T03:31:43.183Z,0.51
2023-04-19T03:32:42.987Z,0.56
2023-04-19T03:33:42.915Z,0.53
2023-04-19T03:34:42.914Z,0.53
2023-04-19T03:35:42.842Z,0.55
2023-04-19T03:36:42.820Z,0.54
2023-04-19T03:37:42.786Z,0.54
2023-04-19T03:38:42.759Z,0.52
2023-04-19T03:39:42.721Z,0.52
2023-04-19T03:40:42.693Z,0.51
2023-04-19T03:41:42.644Z,0.51
2023-04-19T03:42:42.605Z,0.51
2023-04-19T03:43:42.565Z,0.51
2023-04-19T03:44:42.531Z,0.54
2023-04-19T03:45:42.489Z,0.53
2023-04-19T03:46:42.497Z,0.54
2023-04-19T03:47:42.466Z,0.51
2023-04-19T03:48:42.377Z,0.51
2023-04-19T03:49:42.342Z,0.55
2023-04-19T03:50:42.396Z,0.54
2023-04-19T03:51:42.256Z,0.53
2023-04-19T03:52:42.229Z,0.54
2023-04-19T03:53:42.204Z,0.53
2023-04-19T03:54:42.175Z,0.53
2023-04-19T03:55:42.124Z,0.53
2023-04-19T03:56:42.074Z,0.51
2023-04-19T03:57:42.045Z,0.53
2023-04-19T03:58:42.865Z,0.53
2023-04-19T03:59:41.966Z,0.57
2023-04-19T04:00:41.934Z,0.53
2023-04-19T04:01:42.032Z,0.54
2023-04-19T04:02:42.004Z,0.56
2023-04-19T04:03:42.128Z,0.55
2023-04-19T04:04:41.995Z,0.53
2023-04-19T04:05:41.823Z,0.53
2023-04-19T04:06:41.723Z,0.57
2023-04-19T04:07:41.762Z,0.56
2023-04-19T04:08:41.646Z,0.54
2023-04-19T04:09:41.617Z,0.55
2023-04-19T04:10:41.583Z,0.51
2023-04-19T04:11:41.523Z,0.53
2023-04-19T04:12:41.490Z,0.53
2023-04-19T04:13:41.449Z,0.51
2023-04-19T04:14:41.417Z,0.54
2023-04-19T04:15:41.378Z,0.53
2023-04-19T04:16:41.425Z,0.50
2023-04-19T04:17:41.318Z,0.54
2023-04-19T04:18:41.265Z,0.54
2023-04-19T04:19:41.234Z,0.50
2023-04-19T04:20:41.204Z,0.54
2023-04-19T04:21:41.165Z,0.54
2023-04-19T04:22:41.103Z,0.55
2023-04-19T04:23:41.070Z,0.54
2023-04-19T04:24:41.039Z,0.53
2023-04-19T04:25:40.983Z,0.52
2023-04-19T04:26:40.939Z,0.53
2023-04-19T04:27:40.895Z,0.53
2023-04-19T04:28:40.861Z,0.50
2023-04-19T04:29:40.820Z,0.54
2023-04-19T04:30:40.776Z,0.53
2023-04-19T04:31:40.756Z,0.53
2023-04-19T04:32:40.804Z,0.52
2023-04-19T04:33:40.666Z,0.53
2023-04-19T04:34:40.654Z,0.54
2023-04-19T04:35:40.599Z,0.53
2023-04-19T04:36:40.558Z,0.52
2023-04-19T04:37:40.519Z,0.51
2023-04-19T04:38:40.490Z,0.55
2023-04-19T04:39:40.458Z,0.55
2023-04-19T04:40:40.421Z,0.53
2023-04-19T04:41:40.381Z,0.52
2023-04-19T04:42:40.356Z,0.53
2023-04-19T04:43:40.318Z,0.54
2023-04-19T04:44:40.286Z,0.52
2023-04-19T04:45:40.308Z,0.56
2023-04-19T04:46:40.193Z,0.55
2023-04-19T04:47:40.184Z,0.54
2023-04-19T04:48:40.115Z,0.54
2023-04-19T04:49:40.065Z,0.54
2023-04-19T04:50:40.043Z,0.52
2023-04-19T04:51:39.998Z,0.53
2023-04-19T04:52:39.978Z,0.52
2023-04-19T04:53:39.922Z,0.54
2023-04-19T04:54:39.885Z,0.54
2023-04-19T04:55:39.869Z,0.50
2023-04-19T04:56:39.832Z,0.54
2023-04-19T04:57:39.768Z,0.53
2023-04-19T04:58:39.720Z,0.52
2023-04-19T04:59:39.684Z,0.54
2023-04-19T05:00:39.643Z,0.53
2023-04-19T05:01:39.652Z,0.55
2023-04-19T05:02:39.625Z,0.52
2023-04-19T05:03:39.626Z,0.56
2023-04-19T05:04:39.525Z,0.53
2023-04-19T05:05:39.448Z,0.55
2023-04-19T05:06:39.416Z,0.52
2023-04-19T05:07:39.370Z,0.54
2023-04-19T05:08:40.320Z,0.55
2023-04-19T05:09:39.294Z,0.51
2023-04-19T05:10:39.243Z,0.51
2023-04-19T05:11:39.207Z,0.53
2023-04-19T05:12:39.168Z,0.52
2023-04-19T05:13:39.130Z,0.54
2023-04-19T05:14:39.083Z,0.52
2023-04-19T05:15:39.046Z,0.55
2023-04-19T05:16:39.152Z,0.53
2023-04-19T05:17:39.009Z,0.52
2023-04-19T05:18:38.930Z,0.53
2023-04-19T05:19:38.895Z,0.51
2023-04-19T05:20:38.852Z,0.53
2023-04-19T05:21:38.825Z,0.52
2023-04-19T05:22:38.877Z,0.54
2023-04-19T05:23:38.952Z,0.55
2023-04-19T05:24:39.728Z,0.53
2023-04-19T05:25:38.653Z,0.56
2023-04-19T05:26:38.601Z,0.55
2023-04-19T05:27:38.570Z,0.58
2023-04-19T05:28:38.565Z,0.58
2023-04-19T05:29:38.505Z,0.64
2023-04-19T05:30:38.545Z,0.64
2023-04-19T05:31:39.407Z,0.64
2023-04-19T05:32:38.761Z,0.73
2023-04-19T05:33:38.557Z,0.78
2023-04-19T05:34:38.559Z,0.81
2023-04-19T05:35:38.568Z,0.84
2023-04-19T05:36:38.564Z,0.85
2023-04-19T05:37:38.469Z,0.86
2023-04-19T05:38:38.408Z,0.91
2023-04-19T05:39:38.351Z,0.96
2023-04-19T05:40:38.296Z,1.06
2023-04-19T05:41:38.250Z,1.11
2023-04-19T05:42:38.182Z,1.17
2023-04-19T05:43:38.137Z,1.23
2023-04-19T05:44:38.083Z,1.28
2023-04-19T05:45:38.014Z,1.33
2023-04-19T05:46:38.070Z,1.41
2023-04-19T05:47:37.923Z,1.45
2023-04-19T05:48:37.859Z,1.54
2023-04-19T05:49:37.777Z,1.62
2023-04-19T05:50:37.712Z,1.65
2023-04-19T05:51:37.698Z,1.68
2023-04-19T05:52:37.589Z,1.73
2023-04-19T05:53:37.554Z,1.85
2023-04-19T05:54:37.494Z,1.93
2023-04-19T05:55:37.434Z,1.99
2023-04-19T05:56:37.351Z,2.09
2023-04-19T05:57:37.305Z,2.22
2023-04-19T05:58:37.240Z,2.29
2023-04-19T05:59:37.263Z,2.36
2023-04-19T06:00:37.144Z,2.48
2023-04-19T06:01:37.072Z,2.59
2023-04-19T06:02:37.139Z,2.63
2023-04-19T06:03:37.135Z,2.74
2023-04-19T06:04:37.384Z,2.84
2023-04-19T06:05:36.981Z,2.88
2023-04-19T06:06:36.779Z,3.00
2023-04-19T06:07:42.895Z,3.06
2023-04-19T06:08:37.690Z,3.07
2023-04-19T06:09:37.598Z,3.12
2023-04-19T06:10:49.675Z,3.34
2023-04-19T06:11:43.134Z,3.12
2023-04-19T06:12:37.405Z,3.11
2023-04-19T06:13:36.345Z,3.28
2023-04-19T06:14:36.292Z,3.55
2023-04-19T06:15:36.227Z,3.91
2023-04-19T06:16:36.193Z,4.49
2023-04-19T06:17:36.163Z,4.57
2023-04-19T06:18:36.041Z,4.69
2023-04-19T06:19:35.969Z,4.74
2023-04-19T06:20:35.907Z,4.91
2023-04-19T06:21:35.843Z,5.21
2023-04-19T06:22:35.795Z,4.99
2023-04-19T06:23:35.773Z,5.11
2023-04-19T06:24:35.665Z,4.87
2023-04-19T06:25:35.605Z,4.15
2023-04-19T06:26:35.523Z,4.43
2023-04-19T06:27:35.475Z,4.25
2023-04-19T06:28:35.405Z,4.20
2023-04-19T06:29:35.346Z,3.16
2023-04-19T06:30:35.278Z,2.09
2023-04-19T06:31:35.249Z,1.75
2023-04-19T06:32:35.182Z,2.58
2023-04-19T06:33:35.070Z,2.80
2023-04-19T06:34:35.028Z,2.66
2023-04-19T06:35:34.973Z,2.66
2023-04-19T06:36:34.889Z,2.70
2023-04-19T06:37:34.820Z,2.69
2023-04-19T06:38:35.335Z,2.60
2023-04-19T06:39:34.703Z,2.63
2023-04-19T06:40:34.649Z,2.78
2023-04-19T06:41:34.574Z,2.81
2023-04-19T06:42:34.503Z,2.84
2023-04-19T06:43:34.443Z,3.01
2023-04-19T06:44:34.387Z,2.99
2023-04-19T06:45:34.381Z,3.05
2023-04-19T06:46:34.254Z,3.09
2023-04-19T06:47:35.605Z,3.12
2023-04-19T06:48:34.112Z,3.21
2023-04-19T06:49:34.052Z,3.26
2023-04-19T06:50:33.982Z,3.36
2023-04-19T06:51:33.901Z,3.39
2023-04-19T06:52:33.845Z,3.50
2023-04-19T06:53:33.771Z,3.69
2023-04-19T06:54:33.720Z,3.74
2023-04-19T06:55:33.644Z,3.85
2023-04-19T06:56:33.587Z,3.94
2023-04-19T06:57:33.524Z,4.24
2023-04-19T06:58:35.165Z,4.58
2023-04-19T06:59:33.490Z,4.98
2023-04-19T07:00:33.496Z,5.22
2023-04-19T07:01:33.500Z,5.39
2023-04-19T07:02:33.618Z,5.52
2023-04-19T07:03:33.748Z,5.49
2023-04-19T07:04:33.689Z,5.54
2023-04-19T07:05:33.524Z,5.61
2023-04-19T07:06:33.508Z,5.70
2023-04-19T07:07:33.514Z,5.91
2023-04-19T07:08:48.803Z,6.01
2023-04-19T07:09:34.431Z,6.03
2023-04-19T07:10:33.360Z,6.13
2023-04-19T07:11:33.296Z,6.30
2023-04-19T07:12:33.243Z,6.50
2023-04-19T07:13:33.181Z,7.29
2023-04-19T07:14:33.101Z,7.63
2023-04-19T07:15:33.101Z,7.64
2023-04-19T07:16:33.093Z,6.91
2023-04-19T07:17:32.916Z,7.12
2023-04-19T07:18:32.824Z,7.23
2023-04-19T07:19:32.771Z,7.14
2023-04-19T07:20:32.779Z,7.07
2023-04-19T07:21:32.819Z,7.04
2023-04-19T07:22:32.796Z,7.04
2023-04-19T07:23:32.770Z,6.96
2023-04-19T07:24:32.800Z,7.05
2023-04-19T07:25:32.716Z,6.91
2023-04-19T07:26:32.663Z,6.81
2023-04-19T07:27:32.616Z,6.90
2023-04-19T07:28:32.544Z,6.79
2023-04-19T07:29:32.499Z,6.82
2023-04-19T07:30:32.436Z,6.78
2023-04-19T07:31:32.376Z,6.89
2023-04-19T07:32:32.426Z,6.74
2023-04-19T07:33:32.334Z,6.61
2023-04-19T07:34:32.501Z,6.30
2023-04-19T07:35:32.184Z,6.54
2023-04-19T07:36:32.143Z,6.53
2023-04-19T07:37:32.093Z,6.39
2023-04-19T07:38:32.022Z,6.18
2023-04-19T07:39:31.974Z,6.25
2023-04-19T07:40:31.912Z,6.16
2023-04-19T07:41:31.867Z,6.21
2023-04-19T07:42:31.802Z,6.09
2023-04-19T07:43:31.772Z,6.08
2023-04-19T07:44:31.709Z,6.01
2023-04-19T07:45:31.691Z,5.90
2023-04-19T07:46:31.647Z,5.97
2023-04-19T07:47:31.564Z,5.87
2023-04-19T07:48:31.504Z,5.81
2023-04-19T07:49:31.453Z,5.81
2023-04-19T07:50:31.397Z,5.85
2023-04-19T07:51:31.338Z,5.88
2023-04-19T07:52:31.307Z,5.80
2023-04-19T07:53:31.239Z,5.83
2023-04-19T07:54:31.199Z,5.78
2023-04-19T07:55:31.155Z,5.71
2023-04-19T07:56:31.096Z,5.76
2023-04-19T07:57:31.049Z,5.67
2023-04-19T07:58:31.040Z,5.62
2023-04-19T07:59:30.973Z,5.51
2023-04-19T08:00:30.936Z,5.63
2023-04-19T08:01:32.683Z,5.63
2023-04-19T08:02:30.978Z,5.63
2023-04-19T08:03:30.993Z,5.55
2023-04-19T08:04:31.108Z,5.50
2023-04-19T08:05:30.780Z,5.40
2023-04-19T08:06:30.801Z,5.34
2023-04-19T08:07:30.692Z,5.35
2023-04-19T08:08:30.637Z,5.20
2023-04-19T08:09:30.622Z,5.25
2023-04-19T08:10:30.560Z,5.05
2023-04-19T08:11:30.514Z,5.14
2023-04-19T08:12:37.271Z,5.17
2023-04-19T08:13:31.424Z,5.18
2023-04-19T08:14:40.339Z,5.18
2023-04-19T08:17:05.869Z,5.19
2023-04-19T08:17:39.183Z,5.20
2023-04-19T08:18:31.132Z,5.20
2023-04-19T08:19:30.074Z,5.24
2023-04-19T08:20:30.017Z,5.26
2023-04-19T08:21:38.523Z,5.07
2023-04-19T08:22:30.889Z,5.17
2023-04-19T08:23:45.011Z,5.05
2023-04-19T08:24:30.771Z,5.18
2023-04-19T08:25:29.708Z,5.02
2023-04-19T08:26:29.647Z,4.77
2023-04-19T08:27:29.592Z,4.84
2023-04-19T08:28:29.539Z,4.64
2023-04-19T08:29:29.496Z,4.65
2023-04-19T08:30:29.437Z,4.65
2023-04-19T08:31:29.437Z,4.62
2023-04-19T08:32:29.320Z,4.52
2023-04-19T08:33:29.260Z,4.42
2023-04-19T08:34:29.195Z,4.39
2023-04-19T08:35:29.128Z,4.42
2023-04-19T08:36:39.176Z,4.31
2023-04-19T08:37:30.022Z,4.32
2023-04-19T08:38:29.060Z,4.33
2023-04-19T08:39:33.173Z,4.34
2023-04-19T08:40:29.834Z,4.31
2023-04-19T08:41:28.776Z,4.31
2023-04-19T08:42:36.444Z,4.24
2023-04-19T08:43:29.649Z,4.31
2023-04-19T08:44:35.822Z,4.31
2023-04-19T08:45:29.620Z,4.32
2023-04-19T08:46:28.534Z,4.33
2023-04-19T08:47:33.608Z,4.31
2023-04-19T08:48:29.398Z,4.31
2023-04-19T08:49:28.261Z,4.32
2023-04-19T08:50:33.368Z,4.29
2023-04-19T08:51:29.154Z,4.31
2023-04-19T08:52:28.090Z,4.31
2023-04-19T08:53:28.020Z,4.20
2023-04-19T08:54:27.966Z,4.19
2023-04-19T08:55:27.910Z,4.10
2023-04-19T08:56:35.453Z,4.05
2023-04-19T08:57:28.766Z,4.06
2023-04-19T08:58:37.989Z,4.06
2023-04-19T08:59:28.659Z,4.06
2023-04-19T09:00:27.670Z,4.07
2023-04-19T09:01:35.529Z,4.03
2023-04-19T09:02:28.651Z,4.06
2023-04-19T09:03:27.779Z,3.95
2023-04-19T09:04:37.105Z,3.91
2023-04-19T09:05:28.520Z,4.05
2023-04-19T09:06:27.367Z,3.90
2023-04-19T09:07:27.184Z,3.91
2023-04-19T09:08:27.124Z,3.79
2023-04-19T09:10:26.997Z,3.85
2023-04-19T09:11:26.922Z,3.78
2023-04-19T09:12:26.860Z,3.68
2023-04-19T09:13:26.809Z,3.72
2023-04-19T09:14:26.800Z,3.62
2023-04-19T09:15:26.697Z,3.59
2023-04-19T09:16:27.662Z,3.60
2023-04-19T09:17:26.607Z,3.61
2023-04-19T09:18:28.293Z,3.61
2023-04-19T09:19:26.715Z,3.61
2023-04-19T09:20:26.425Z,3.60
2023-04-19T09:21:26.355Z,3.55
2023-04-19T09:22:26.292Z,3.48
2023-04-19T09:23:26.237Z,3.40
2023-04-19T09:24:26.182Z,3.41
2023-04-19T09:25:41.969Z,3.41
2023-04-19T09:26:27.175Z,3.41
2023-04-19T09:27:26.039Z,3.41
2023-04-19T09:28:25.962Z,3.40
2023-04-19T09:29:25.910Z,3.36
2023-04-19T09:30:32.463Z,3.32
2023-04-19T09:32:25.858Z,3.41
2023-04-19T09:33:25.828Z,3.34
2023-04-19T09:34:25.653Z,3.35
2023-04-19T09:35:25.600Z,3.25
2023-04-19T09:36:25.545Z,3.26
2023-04-19T09:37:50.927Z,3.17
2023-04-19T09:38:26.434Z,3.18
2023-04-19T09:39:25.388Z,3.19
2023-04-19T09:40:25.389Z,3.17
2023-04-19T09:41:25.293Z,3.14
2023-04-19T09:42:47.174Z,3.12
2023-04-19T09:43:53.786Z,3.17
2023-04-19T09:46:25.087Z,3.18
2023-04-19T09:47:25.002Z,3.19
2023-04-19T09:48:24.926Z,3.18
2023-04-19T09:49:37.461Z,3.10
2023-04-19T09:50:27.629Z,3.18
2023-04-19T09:51:24.877Z,3.18
2023-04-19T09:52:24.721Z,3.11
2023-04-19T09:53:24.663Z,3.02
2023-04-19T09:54:24.604Z,2.98
2023-04-19T09:55:28.160Z,2.97
2023-04-19T09:56:25.477Z,2.98
2023-04-19T09:57:24.421Z,2.99
2023-04-19T09:58:26.210Z,2.92
2023-04-19T09:59:24.376Z,2.98
2023-04-19T10:00:24.223Z,2.99
2023-04-19T10:01:24.204Z,2.91
2023-04-19T10:02:24.223Z,2.88
2023-04-19T10:03:24.135Z,2.84
2023-04-19T10:04:29.481Z,2.85
2023-04-19T10:05:25.104Z,2.85
2023-04-19T10:07:30.598Z,2.85
2023-04-19T10:08:24.742Z,2.85
2023-04-19T10:09:23.677Z,2.86
2023-04-19T10:10:32.878Z,2.86
2023-04-19T10:11:24.561Z,2.85
2023-04-19T10:12:46.242Z,2.85
2023-04-19T10:13:26.673Z,2.85
2023-04-19T10:14:23.363Z,2.85
2023-04-19T10:15:23.312Z,2.81
2023-04-19T10:16:23.338Z,2.77
2023-04-19T10:17:23.327Z,2.71
2023-04-19T10:18:23.142Z,2.70
2023-04-19T10:19:23.065Z,2.69
2023-04-19T10:20:23.022Z,2.64
2023-04-19T10:21:22.960Z,2.62
2023-04-19T10:22:22.895Z,2.58
2023-04-19T10:23:22.854Z,2.61
2023-04-19T10:24:22.779Z,2.55
2023-04-19T10:25:22.723Z,2.52
2023-04-19T10:26:22.682Z,2.51
2023-04-19T10:27:23.404Z,2.54
2023-04-19T10:28:22.549Z,2.54
2023-04-19T10:29:22.495Z,2.50
2023-04-19T10:30:22.462Z,2.47
2023-04-19T10:31:22.499Z,2.51
2023-04-19T10:32:22.357Z,2.45
2023-04-19T10:33:22.264Z,2.39
2023-04-19T10:34:22.231Z,2.42
2023-04-19T10:35:22.170Z,2.41
2023-04-19T10:36:22.097Z,2.37
2023-04-19T10:37:22.048Z,2.35
2023-04-19T10:38:22.006Z,2.38
2023-04-19T10:39:21.939Z,2.36
2023-04-19T10:40:21.883Z,2.37
2023-04-19T10:41:21.820Z,2.35
2023-04-19T10:42:21.763Z,2.36
2023-04-19T10:43:21.699Z,2.31
2023-04-19T10:44:21.644Z,2.31
2023-04-19T10:45:21.585Z,2.33
2023-04-19T10:46:21.642Z,2.26
2023-04-19T10:47:21.503Z,2.30
2023-04-19T10:48:21.416Z,2.21
2023-04-19T10:49:21.352Z,2.28
2023-04-19T10:50:21.296Z,2.24
2023-04-19T10:51:21.264Z,2.25
2023-04-19T10:52:21.198Z,2.25
2023-04-19T10:53:21.143Z,2.24
2023-04-19T10:54:21.083Z,2.27
2023-04-19T10:55:21.050Z,2.24
2023-04-19T10:56:20.972Z,2.23
2023-04-19T10:57:20.922Z,2.20
2023-04-19T10:58:20.885Z,2.24
2023-04-19T10:59:20.810Z,2.18
2023-04-19T11:00:20.762Z,2.17
2023-04-19T11:01:20.721Z,2.17
2023-04-19T11:02:20.751Z,2.11
2023-04-19T11:03:20.778Z,2.14
2023-04-19T11:04:20.626Z,2.16
2023-04-19T11:05:20.487Z,2.10
2023-04-19T11:06:20.422Z,2.13
2023-04-19T11:07:20.366Z,2.10
2023-04-19T11:08:20.314Z,2.10
2023-04-19T11:09:20.268Z,2.09
2023-04-19T11:10:20.216Z,2.06
2023-04-19T11:11:20.169Z,2.11
2023-04-19T11:12:20.126Z,2.07
2023-04-19T11:13:20.057Z,2.13
2023-04-19T11:14:19.992Z,2.02
2023-04-19T11:15:19.953Z,2.04
2023-04-19T11:16:22.631Z,2.04
2023-04-19T11:17:20.835Z,2.05
2023-04-19T11:18:19.958Z,2.05
2023-04-19T11:19:19.857Z,2.05
2023-04-19T11:20:19.664Z,2.03
2023-04-19T11:21:19.611Z,2.05
2023-04-19T11:22:19.554Z,2.02
2023-04-19T11:23:19.505Z,1.96
2023-04-19T11:24:19.439Z,1.97
2023-04-19T11:25:19.492Z,1.99
2023-04-19T11:26:19.335Z,2.00
2023-04-19T11:27:19.266Z,1.96
2023-04-19T11:28:19.227Z,1.96
2023-04-19T11:29:19.172Z,1.90
2023-04-19T11:30:19.133Z,1.94
2023-04-19T11:31:19.174Z,1.90
2023-04-19T11:32:19.112Z,1.91
2023-04-19T11:33:19.083Z,1.89
2023-04-19T11:34:19.354Z,1.88
2023-04-19T11:35:19.075Z,1.87
2023-04-19T11:36:19.035Z,1.85
2023-04-19T11:37:19.024Z,1.88
2023-04-19T11:38:19.012Z,1.85
2023-04-19T11:39:19.001Z,1.85
2023-04-19T11:40:18.991Z,1.87
2023-04-19T11:41:18.989Z,1.82
2023-04-19T11:42:18.984Z,1.85
2023-04-19T11:43:18.974Z,1.81
2023-04-19T11:44:19.102Z,1.82
2023-04-19T11:45:28.652Z,1.77
2023-04-19T11:46:19.921Z,1.77
2023-04-19T11:47:18.854Z,1.77
2023-04-19T11:48:18.787Z,1.77
2023-04-19T11:49:18.729Z,1.78
2023-04-19T11:50:18.685Z,1.80
2023-04-19T11:51:18.620Z,1.79
2023-04-19T11:52:18.594Z,1.76
2023-04-19T11:53:18.513Z,1.72
2023-04-19T11:54:18.633Z,1.75
2023-04-19T11:55:18.446Z,1.71
2023-04-19T11:56:18.346Z,1.70
2023-04-19T11:57:18.290Z,1.72
2023-04-19T11:58:18.260Z,1.72
2023-04-19T11:59:18.236Z,1.70
2023-04-19T12:00:18.226Z,1.71
2023-04-19T12:01:18.282Z,1.69
2023-04-19T12:02:18.348Z,1.71
2023-04-19T12:03:18.457Z,1.67
2023-04-19T12:04:18.603Z,1.61
2023-04-19T12:05:18.434Z,1.62
2023-04-19T12:06:18.190Z,1.63
2023-04-19T12:07:18.189Z,1.63
2023-04-19T12:08:18.238Z,1.64
2023-04-19T12:09:18.166Z,1.64
2023-04-19T12:10:18.167Z,1.62
2023-04-19T12:11:18.161Z,1.59
2023-04-19T12:12:18.157Z,1.55
2023-04-19T12:13:18.235Z,1.55
2023-04-19T12:14:18.589Z,1.59
2023-04-19T12:15:18.141Z,1.56
2023-04-19T12:16:18.199Z,1.57
2023-04-19T12:17:18.180Z,1.58
2023-04-19T12:18:18.208Z,1.52
2023-04-19T12:19:18.608Z,1.56
2023-04-19T12:20:18.115Z,1.54
2023-04-19T12:21:18.113Z,1.50
2023-04-19T12:22:18.148Z,1.50
2023-04-19T12:23:18.126Z,1.48
2023-04-19T12:24:18.111Z,1.55
2023-04-19T12:25:18.109Z,1.51
2023-04-19T12:26:18.102Z,1.53
2023-04-19T12:27:18.106Z,1.50
2023-04-19T12:28:18.097Z,1.44
2023-04-19T12:29:18.274Z,1.44
2023-04-19T12:30:18.092Z,1.47
2023-04-19T12:31:18.098Z,1.45
2023-04-19T12:32:18.279Z,1.43
2023-04-19T12:33:18.103Z,1.41
2023-04-19T12:34:18.089Z,1.41
2023-04-19T12:35:18.093Z,1.36
2023-04-19T12:36:18.094Z,1.38
2023-04-19T12:37:18.096Z,1.35
2023-04-19T12:38:19.012Z,1.38
2023-04-19T12:39:18.178Z,1.30
2023-04-19T12:40:18.082Z,1.28
2023-04-19T12:41:18.073Z,1.26
2023-04-19T12:42:18.086Z,1.26
2023-04-19T12:43:18.099Z,1.24
2023-04-19T12:44:18.097Z,1.22
2023-04-19T12:45:18.079Z,1.23
2023-04-19T12:46:18.118Z,1.23
2023-04-19T12:47:18.084Z,1.20
2023-04-19T12:48:18.088Z,1.23
2023-04-19T12:49:18.208Z,1.19
2023-04-19T12:50:18.103Z,1.21
2023-04-19T12:51:18.094Z,1.24
2023-04-19T12:52:18.107Z,1.24
2023-04-19T12:53:18.103Z,1.21
2023-04-19T12:54:18.191Z,1.18
2023-04-19T12:55:18.113Z,1.20
2023-04-19T12:56:18.114Z,1.24
2023-04-19T12:57:18.128Z,1.23
2023-04-19T12:58:18.154Z,1.25
2023-04-19T12:59:18.372Z,1.22
2023-04-19T13:00:18.145Z,1.18
2023-04-19T13:01:18.196Z,1.23
2023-04-19T13:02:18.239Z,1.26
2023-04-19T13:03:18.261Z,1.19
2023-04-19T13:04:18.587Z,1.21
2023-04-19T13:05:18.197Z,1.23
2023-04-19T13:06:18.190Z,1.17
2023-04-19T13:07:18.211Z,1.13
2023-04-19T13:08:18.212Z,1.14
2023-04-19T13:09:18.241Z,1.13
2023-04-19T13:10:18.220Z,1.12
2023-04-19T13:11:18.233Z,1.17
2023-04-19T13:12:18.231Z,1.17
2023-04-19T13:13:18.239Z,1.16
2023-04-19T13:14:18.453Z,1.16
2023-04-19T13:15:18.248Z,1.14
2023-04-19T13:16:18.382Z,1.13
2023-04-19T13:17:18.265Z,1.14
2023-04-19T13:18:18.271Z,1.17
2023-04-19T13:19:18.277Z,1.11
2023-04-19T13:20:18.282Z,1.09
2023-04-19T13:21:18.292Z,1.09
2023-04-19T13:22:18.303Z,1.09
2023-04-19T13:23:18.299Z,1.09
2023-04-19T13:24:18.549Z,1.06